createdAt,value
2023-02-12T00:03:59.193Z,55.37
2023-02-12T00:14:01.911Z,57.00
2023-02-12T00:24:09.139Z,53.57
2023-02-12T00:34:12.594Z,51.73
2023-02-12T00:44:16.617Z,52.27
2023-02-12T00:54:19.956Z,57.70
2023-02-12T01:04:23.564Z,53.10
2023-02-12T01:14:25.952Z,51.07
2023-02-12T01:24:28.415Z,53.83
2023-02-12T01:34:30.605Z,52.57
2023-02-12T01:44:37.070Z,50.57
2023-02-12T01:54:39.492Z,49.03
2023-02-12T02:04:49.072Z,49.63
2023-02-12T02:14:53.725Z,45.43
2023-02-12T02:25:32.220Z,47.37
2023-02-12T02:35:53.648Z,47.80
2023-02-12T02:46:00.815Z,49.77
2023-02-12T02:56:06.535Z,48.57
2023-02-12T03:06:12.634Z,55.53
2023-02-12T03:16:21.484Z,51.10
2023-02-12T03:26:27.216Z,50.63
2023-02-12T03:36:32.358Z,49.83
2023-02-12T03:46:42.071Z,46.00
2023-02-12T03:56:52.228Z,47.13
2023-02-12T04:06:54.682Z,48.43
2023-02-12T04:17:13.078Z,53.90
2023-02-12T04:27:26.365Z,45.07
2023-02-12T04:37:46.683Z,49.20
2023-02-12T04:47:49.014Z,51.77
2023-02-12T04:57:51.088Z,49.07
2023-02-12T05:07:53.233Z,49.20
2023-02-12T05:17:56.396Z,46.10
2023-02-12T05:27:58.852Z,47.07
2023-02-12T05:38:02.120Z,47.30
2023-02-12T05:48:04.489Z,49.17
2023-02-12T05:58:08.683Z,45.97
2023-02-12T06:08:11.131Z,44.30
2023-02-12T06:18:13.346Z,46.00
2023-02-12T06:28:15.892Z,48.10
2023-02-12T06:38:18.320Z,47.70
2023-02-12T06:48:20.493Z,48.70
2023-02-12T06:58:22.690Z,47.63
2023-02-12T07:08:25.109Z,45.07
2023-02-12T07:18:27.520Z,49.47
2023-02-12T07:28:33.576Z,47.37
2023-02-12T07:38:39.811Z,44.77
2023-02-12T07:48:42.280Z,48.40
2023-02-12T07:58:46.572Z,46.23
2023-02-12T08:08:51.232Z,45.87
2023-02-12T08:18:54.299Z,39.03
2023-02-12T08:29:09.406Z,42.30
2023-02-12T08:39:13.062Z,43.57
2023-02-12T08:49:20.247Z,41.27
2023-02-12T08:59:22.377Z,44.93
2023-02-12T09:09:26.607Z,41.57
2023-02-12T09:19:29.814Z,47.73
2023-02-12T09:29:32.336Z,44.40
2023-02-12T09:39:34.567Z,44.80
2023-02-12T09:49:59.412Z,43.53
2023-02-12T10:00:08.449Z,39.23
2023-02-12T10:10:39.857Z,36.57
2023-02-12T10:20:52.425Z,36.27
2023-02-12T10:31:10.352Z,39.80
2023-02-12T10:41:15.059Z,37.87
2023-02-12T10:51:48.810Z,32.57
2023-02-12T11:01:58.072Z,30.13
2023-02-12T11:12:00.389Z,32.97
2023-02-12T11:22:19.056Z,31.83
2023-02-12T11:32:22.929Z,31.47
2023-02-12T11:42:29.915Z,29.80
2023-02-12T11:52:38.610Z,33.53
2023-02-12T12:03:41.760Z,30.87
2023-02-12T12:14:05.373Z,30.37
2023-02-12T12:24:32.755Z,30.50
2023-02-12T12:34:38.244Z,31.00
2023-02-12T12:45:18.126Z,29.90
2023-02-12T12:55:39.346Z,32.60
2023-02-12T13:06:02.987Z,32.27
2023-02-12T13:16:16.188Z,27.73
2023-02-12T13:26:43.924Z,26.85
2023-02-12T13:37:20.865Z,28.73
2023-02-12T13:47:53.966Z,25.87
2023-02-12T13:58:30.648Z,31.00
2023-02-12T14:09:07.949Z,28.13
2023-02-12T14:19:41.165Z,27.43
2023-02-12T14:30:02.705Z,26.03
2023-02-12T14:40:35.534Z,26.87
2023-02-12T14:50:53.392Z,26.23
2023-02-12T15:00:57.546Z,26.30
2023-02-12T15:11:57.268Z,29.63
2023-02-12T15:22:01.222Z,29.90
2023-02-12T15:32:07.057Z,29.87
2023-02-12T15:42:34.940Z,34.60
2023-02-12T15:52:42.522Z,31.08
2023-02-12T16:02:53.664Z,28.03
2023-02-12T16:12:57.261Z,27.37
2023-02-12T16:23:08.111Z,27.33
2023-02-12T16:33:31.529Z,27.53
2023-02-12T16:43:34.051Z,25.27
2023-02-12T16:53:45.641Z,26.50
2023-02-12T17:03:50.621Z,33.10
2023-02-12T17:13:54.953Z,31.17
2023-02-12T17:23:57.306Z,33.97
2023-02-12T17:33:59.582Z,34.93
2023-02-12T17:44:02.242Z,31.83
2023-02-12T17:54:05.248Z,30.87
2023-02-12T18:04:07.764Z,30.30
2023-02-12T18:14:11.121Z,28.03
2023-02-12T18:24:14.254Z,29.30
2023-02-12T18:34:16.789Z,28.33
2023-02-12T18:44:19.261Z,29.63
2023-02-12T18:54:21.741Z,29.47
2023-02-12T19:04:26.426Z,26.93
2023-02-12T19:14:29.851Z,22.77
2023-02-12T19:24:45.909Z,24.10
2023-02-12T19:34:49.186Z,24.90
2023-02-12T19:44:51.409Z,23.17
2023-02-12T19:54:53.931Z,25.08
2023-02-12T20:04:56.141Z,26.02
2023-02-12T20:15:02.792Z,25.67
2023-02-12T20:25:06.759Z,22.33
2023-02-12T20:35:08.926Z,22.40
2023-02-12T20:45:11.340Z,22.73
2023-02-12T20:55:13.511Z,21.67
2023-02-12T21:05:16.043Z,23.63
2023-02-12T21:15:18.170Z,23.23
2023-02-12T21:25:20.324Z,22.80
2023-02-12T21:35:22.709Z,21.00
2023-02-12T21:45:25.046Z,20.63
2023-02-12T21:55:27.527Z,21.47
2023-02-12T22:05:32.624Z,22.13
2023-02-12T22:15:34.707Z,19.80
2023-02-12T22:25:36.810Z,19.23
2023-02-12T22:35:40.238Z,20.90
2023-02-12T22:45:44.413Z,17.65
2023-02-12T22:55:46.647Z,19.77
2023-02-12T23:05:48.767Z,19.63
2023-02-12T23:15:50.900Z,18.43
2023-02-12T23:25:54.691Z,18.73
2023-02-12T23:35:57.088Z,21.63
2023-02-12T23:45:59.803Z,20.47
2023-02-12T23:56:02.124Z,20.53
